Bangui, Central African Republic
Current Conditions -  °F | °C
As of 7:00 PM on Sunday 21 Dec 2014 (Local Time) from FEFF Reporting Station
Clear Clear  
Wind Chill: 77°   Ceiling: Unl
Heat Index: 79°   Visibility: 4mi
Dew Point: 66°   Wind: 1mph
Humidity: 69%   Direction: 140°SE
Pressure: 29.83"   Gusts: NA
Location:  4.36°N, 18.56°E
Report Text: FEFF 211800Z 14001KT 6000 NSC 25/19 Q1010 NOSIG
Loading
Personal Weather Stations






























Interactive Weather Map New forecast layout! Learn more

10-Day Weather Forecast

Advertisements
Track Severe Weather on mobile